Time;durP1;ratioP1;P1;durP2;ratioP2;P2;SDS_P1;SDS_P2;PMS_P1;PMS_P2;Temp;Humidity;BMP_temperature;BMP_pressure;BME280_temperature;BME280_humidity;BME280_pressure;Samples;Min_cycle;Max_cycle;Signal;HPM_P1;HPM_P2
2022/04/14 00:01:58;;;;;;;7.20;3.80;;;;;;;7.12;100.00;61564.00;5091351;28;20480;-72
2022/04/14 00:04:25;;;;;;;5.93;3.63;;;;;;;7.11;100.00;61568.00;5092067;28;20481;-73
2022/04/14 00:06:52;;;;;;;7.50;4.00;;;;;;;7.07;100.00;61561.19;5090994;28;20511;-72
2022/04/14 00:09:20;;;;;;;8.53;3.80;;;;;;;7.21;100.00;61568.00;5092127;28;20475;-72
2022/04/14 00:11:48;;;;;;;7.83;3.57;;;;;;;6.43;100.00;61487.84;5092165;28;20465;-72
2022/04/14 00:14:15;;;;;;;5.73;3.37;;;;;;;7.12;100.00;61564.00;5091897;28;20526;-72
2022/04/14 00:16:41;;;;;;;7.37;4.37;;;;;;;7.15;100.00;61569.19;5091877;28;20450;-71
2022/04/14 00:19:08;;;;;;;6.93;4.10;;;;;;;6.37;100.00;61481.44;5092095;28;20507;-71
2022/04/14 00:21:35;;;;;;;7.17;4.03;;;;;;;7.14;100.00;61566.13;5083455;28;20446;-73
2022/04/14 00:24:02;;;;;;;6.67;3.60;;;;;;;7.05;100.00;61556.53;5071767;28;20540;-72
2022/04/14 00:26:30;;;;;;;6.90;3.80;;;;;;;7.12;100.00;61564.00;5071546;28;20454;-72
2022/04/14 00:28:57;;;;;;;6.57;3.80;;;;;;;7.20;100.00;61572.53;5071635;28;20825;-71
2022/04/14 00:31:24;;;;;;;7.37;4.10;;;;;;;7.02;100.00;61550.78;5085456;28;20472;-71
2022/04/14 00:33:51;;;;;;;7.27;3.70;;;;;;;7.07;100.00;61558.66;5091462;28;21003;-72
2022/04/14 00:36:19;;;;;;;5.73;3.90;;;;;;;7.04;100.00;61558.00;5077226;28;20446;-71
2022/04/14 00:38:46;;;;;;;7.57;4.23;;;;;;;6.86;100.00;61536.25;5091645;28;20441;-73
2022/04/14 00:41:12;;;;;;;7.80;4.20;;;;;;;6.82;100.00;61531.97;5087312;28;20450;-71
2022/04/14 00:43:43;;;;;;;6.63;3.93;;;;;;;6.76;100.00;61528.13;5071131;28;20482;-72
2022/04/14 00:46:09;;;;;;;8.60;4.20;;;;;;;6.74;100.00;61526.50;5073082;28;20441;-72
2022/04/14 00:48:37;;;;;;;6.63;4.27;;;;;;;6.65;100.00;61516.91;5075406;28;20457;-73
2022/04/14 00:51:06;;;;;;;6.00;3.90;;;;;;;6.58;100.00;61506.88;5077671;28;20508;-72
2022/04/14 00:53:32;;;;;;;10.40;5.00;;;;;;;6.59;100.00;61510.50;5095891;28;20838;-72
2022/04/14 00:55:59;;;;;;;14.60;7.03;;;;;;;6.60;100.00;61508.50;5091813;28;20446;-71
2022/04/14 00:58:27;;;;;;;10.13;5.60;;;;;;;6.42;100.00;61491.84;5075576;28;20511;-72
2022/04/14 01:00:55;;;;;;;10.93;6.13;;;;;;;6.30;100.00;61477.03;5080922;28;20469;-72
2022/04/14 01:03:23;;;;;;;9.00;5.13;;;;;;;6.18;100.00;61466.25;5075413;28;20481;-71
2022/04/14 01:05:50;;;;;;;10.20;5.30;;;;;;;6.03;100.00;61452.75;5091555;28;20453;-71
2022/04/14 01:08:18;;;;;;;10.70;5.10;;;;;;;6.39;100.00;61486.09;5095607;28;20822;-72
2022/04/14 01:10:48;;;;;;;28.43;6.33;;;;;;;6.28;100.00;61476.91;5095323;28;20437;-72
2022/04/14 01:13:16;;;;;;;10.00;4.57;;;;;;;5.97;100.00;61439.31;5095722;28;20533;-72
2022/04/14 01:15:43;;;;;;;11.13;5.40;;;;;;;5.84;100.00;61425.97;5095104;28;20470;-72
2022/04/14 01:18:12;;;;;;;11.70;4.93;;;;;;;5.95;100.00;61445.31;5086363;28;20453;-71
2022/04/14 01:20:41;;;;;;;8.97;4.50;;;;;;;5.99;100.00;61443.97;5095465;28;20445;-72
2022/04/14 01:23:09;;;;;;;6.20;3.97;;;;;;;5.60;100.00;61405.44;5075695;28;20481;-71
2022/04/14 01:25:38;;;;;;;6.63;4.10;;;;;;;5.26;100.00;61364.16;5075090;28;21083;-72
2022/04/14 01:28:07;;;;;;;7.80;4.00;;;;;;;5.57;100.00;61399.72;5094339;28;20453;-71
2022/04/14 01:30:36;;;;;;;4.97;4.00;;;;;;;5.34;100.00;61375.19;5092322;28;20434;-71
2022/04/14 01:33:03;;;;;;;5.90;3.70;;;;;;;5.90;100.00;61437.44;5075360;28;20969;-71
2022/04/14 01:35:30;;;;;;;5.77;3.73;;;;;;;5.88;100.00;61432.78;5090145;28;20450;-71
2022/04/14 01:37:57;;;;;;;6.03;3.53;;;;;;;5.85;100.00;61429.59;5076357;28;20457;-72
2022/04/14 01:40:24;;;;;;;7.50;3.63;;;;;;;5.68;100.00;61411.44;5074762;28;20438;-71
2022/04/14 01:42:53;;;;;;;6.97;3.87;;;;;;;5.74;100.00;61420.34;5074182;28;20454;-71
2022/04/14 01:45:19;;;;;;;8.90;4.20;;;;;;;5.66;100.00;61406.78;5090845;28;20533;-71
2022/04/14 01:47:47;;;;;;;7.70;4.30;;;;;;;5.52;100.00;61396.91;5094776;28;20446;-71
2022/04/14 01:50:15;;;;;;;5.93;3.90;;;;;;;5.42;100.00;61383.19;5094914;28;20457;-72
2022/04/14 01:52:45;;;;;;;10.10;4.60;;;;;;;5.61;100.00;61403.97;5078816;28;20875;-72
2022/04/14 01:55:12;;;;;;;7.67;4.10;;;;;;;5.54;100.00;61399.03;5074425;28;21008;-71
2022/04/14 01:57:38;;;;;;;8.97;4.60;;;;;;;5.46;100.00;61398.09;5073564;28;20447;-71
2022/04/14 02:00:08;;;;;;;9.03;4.83;;;;;;;5.36;100.00;61377.34;5074353;28;20458;-72
2022/04/14 02:02:35;;;;;;;8.63;4.47;;;;;;;5.43;100.00;61379.75;5074451;28;20967;-72
2022/04/14 02:05:03;;;;;;;7.80;4.63;;;;;;;5.33;100.00;61379.19;5089105;28;20550;-71
2022/04/14 02:07:29;;;;;;;8.47;4.57;;;;;;;5.46;100.00;61387.97;5093473;28;20442;-71
2022/04/14 02:09:56;;;;;;;8.67;4.60;;;;;;;4.69;100.00;61305.97;5094234;28;20506;-72
2022/04/14 02:12:24;;;;;;;8.50;5.07;;;;;;;5.22;100.00;61364.41;5094344;28;20532;-72
2022/04/14 02:14:51;;;;;;;8.70;5.27;;;;;;;5.15;100.00;61360.00;5094102;28;20465;-72
2022/04/14 02:17:19;;;;;;;7.90;5.00;;;;;;;5.04;100.00;61340.72;5093987;28;20437;-72
2022/04/14 02:19:47;;;;;;;8.50;4.70;;;;;;;5.16;100.00;61350.97;5094032;28;20437;-71
2022/04/14 02:22:14;;;;;;;12.30;5.10;;;;;;;5.33;100.00;61373.59;5080273;28;20450;-72
2022/04/14 02:24:41;;;;;;;7.80;4.73;;;;;;;5.39;100.00;61380.00;5086420;28;20477;-71
2022/04/14 02:27:08;;;;;;;16.73;5.50;;;;;;;5.38;100.00;61381.44;5094189;28;20958;-72
2022/04/14 02:29:34;;;;;;;10.23;3.83;;;;;;;4.98;100.00;61341.91;5094198;28;20453;-70
2022/04/14 02:32:01;;;;;;;8.47;4.40;;;;;;;5.38;100.00;61378.94;5094026;28;20803;-73
2022/04/14 02:34:30;;;;;;;6.97;4.00;;;;;;;5.28;100.00;61371.34;5093634;28;20911;-71
2022/04/14 02:36:56;;;;;;;7.90;4.80;;;;;;;5.35;100.00;61375.75;5093343;28;20450;-72
2022/04/14 02:39:23;;;;;;;12.40;5.70;;;;;;;5.37;100.00;61372.81;5093900;28;20446;-72
2022/04/14 02:41:50;;;;;;;7.57;4.60;;;;;;;5.38;100.00;61381.97;5093290;28;21052;-71
2022/04/14 02:44:16;;;;;;;19.63;5.37;;;;;;;5.32;100.00;61375.59;5085012;28;20474;-72
2022/04/14 02:46:43;;;;;;;15.90;5.90;;;;;;;5.33;100.00;61373.59;5073300;28;20528;-72
2022/04/14 02:49:11;;;;;;;10.63;5.10;;;;;;;5.12;100.00;61351.75;5079704;28;20968;-71
2022/04/14 02:51:39;;;;;;;7.77;4.90;;;;;;;5.16;100.00;61358.53;5085255;28;20450;-72
2022/04/14 02:54:06;;;;;;;10.30;4.80;;;;;;;5.18;100.00;61355.09;5073479;28;20496;-72
2022/04/14 02:56:33;;;;;;;11.40;5.43;;;;;;;5.13;100.00;61352.84;5072844;28;20458;-71
2022/04/14 02:59:00;;;;;;;9.90;5.30;;;;;;;5.26;100.00;61366.69;5073132;28;20446;-72
2022/04/14 03:01:26;;;;;;;10.57;4.50;;;;;;;5.26;100.00;61366.69;5073096;28;21019;-71
2022/04/14 03:03:53;;;;;;;11.33;4.80;;;;;;;5.18;100.00;61358.16;5077354;28;20473;-72
2022/04/14 03:06:20;;;;;;;11.07;4.77;;;;;;;5.23;100.00;61360.44;5092111;28;20980;-72
2022/04/14 03:08:48;;;;;;;9.00;4.73;;;;;;;5.19;100.00;61361.75;5092800;28;20442;-71
2022/04/14 03:11:15;;;;;;;14.20;5.43;;;;;;;5.18;100.00;61358.16;5093243;28;20446;-71
2022/04/14 03:13:42;;;;;;;11.63;5.07;;;;;;;5.16;100.00;61356.03;5092988;28;20441;-71
2022/04/14 03:16:09;;;;;;;12.23;5.00;;;;;;;5.02;100.00;61339.13;5092772;28;20467;-71
2022/04/14 03:18:36;;;;;;;14.40;6.77;;;;;;;5.01;100.00;61342.56;5091369;28;20831;-71
2022/04/14 03:21:03;;;;;;;13.97;6.10;;;;;;;4.85;100.00;61323.00;5075482;28;20508;-74
2022/04/14 03:23:30;;;;;;;20.73;6.17;;;;;;;4.75;100.00;61312.88;5092964;28;20967;-71
2022/04/14 03:25:58;;;;;;;21.53;7.03;;;;;;;4.72;100.00;61309.69;5090940;28;20493;-72
2022/04/14 03:28:24;;;;;;;20.77;6.57;;;;;;;3.85;100.00;61215.09;5092814;28;20434;-71
2022/04/14 03:30:51;;;;;;;22.07;6.60;;;;;;;4.56;100.00;61292.13;5092620;28;20502;-71
2022/04/14 03:33:18;;;;;;;23.70;6.30;;;;;;;4.59;100.00;61295.31;5093183;28;20457;-72
2022/04/14 03:35:45;;;;;;;18.33;6.80;;;;;;;4.57;100.00;61296.22;5091498;28;20442;-72
2022/04/14 03:38:12;;;;;;;28.77;6.93;;;;;;;4.04;100.00;61235.31;5072508;28;20818;-70
2022/04/14 03:40:39;;;;;;;36.40;8.73;;;;;;;4.12;100.00;61243.31;5072370;28;20474;-72
2022/04/14 03:43:07;;;;;;;40.27;9.20;;;;;;;4.20;100.00;61254.34;5072217;28;21460;-72
2022/04/14 03:45:34;;;;;;;40.00;8.40;;;;;;;4.12;100.00;61246.38;5071996;28;20531;-71
2022/04/14 03:48:00;;;;;;;22.53;7.30;;;;;;;3.85;100.00;61217.63;5072231;28;20504;-71
2022/04/14 03:50:27;;;;;;;39.60;8.70;;;;;;;3.95;100.00;61223.22;5088172;28;20975;-71
2022/04/14 03:52:55;;;;;;;38.47;8.53;;;;;;;3.93;100.00;61226.13;5076659;28;20448;-72
2022/04/14 03:55:22;;;;;;;40.00;8.87;;;;;;;3.90;100.00;61222.94;5092063;28;20442;-71
2022/04/14 03:57:49;;;;;;;20.13;7.67;;;;;;;3.95;100.00;61228.25;5092521;28;20445;-71
2022/04/14 04:00:17;;;;;;;19.43;7.70;;;;;;;3.98;100.00;61231.47;5092141;28;20449;-73
2022/04/14 04:02:43;;;;;;;17.20;6.33;;;;;;;3.94;100.00;61227.22;5092229;28;20445;-72
2022/04/14 04:05:11;;;;;;;17.87;7.63;;;;;;;4.10;100.00;61244.22;5084127;28;20489;-71
2022/04/14 04:07:38;;;;;;;21.23;7.83;;;;;;;4.13;100.00;61244.91;5087386;28;20469;-71
2022/04/14 04:10:06;;;;;;;21.80;7.07;;;;;;;4.25;100.00;61259.66;5091290;28;20445;-72
2022/04/14 04:12:32;;;;;;;37.53;10.07;;;;;;;4.17;100.00;61251.66;5092197;28;20813;-73
2022/04/14 04:14:59;;;;;;;51.47;9.77;;;;;;;4.33;100.00;61270.16;5091958;28;20458;-73
2022/04/14 04:17:27;;;;;;;51.00;10.80;;;;;;;4.36;100.00;61271.38;5071817;28;20872;-71
2022/04/14 04:19:55;;;;;;;40.43;9.10;;;;;;;4.53;100.00;61288.94;5082544;28;20442;-72
2022/04/14 04:22:21;;;;;;;41.40;12.80;;;;;;;4.63;100.00;61299.59;5077873;28;20453;-72
2022/04/14 04:24:48;;;;;;;38.90;12.13;;;;;;;4.70;100.00;61307.03;5071027;28;20478;-71
2022/04/14 04:27:15;;;;;;;51.33;12.93;;;;;;;4.67;100.00;61303.84;5071143;28;20462;-72
2022/04/14 04:29:42;;;;;;;30.50;11.00;;;;;;;4.75;100.00;61312.38;5071330;28;20450;-72
2022/04/14 04:32:09;;;;;;;24.47;14.30;;;;;;;4.79;100.00;61317.13;5073723;28;20531;-72
2022/04/14 04:34:37;;;;;;;27.03;15.13;;;;;;;5.04;100.00;61343.25;5071721;28;20478;-72
2022/04/14 04:37:05;;;;;;;35.73;15.77;;;;;;;5.24;100.00;61364.53;5071060;28;20445;-72
2022/04/14 04:39:31;;;;;;;39.00;16.77;;;;;;;5.38;100.00;61379.47;5081065;28;20451;-72
2022/04/14 04:41:59;;;;;;;32.37;14.87;;;;;;;5.64;100.00;61407.16;5070484;28;20478;-74
2022/04/14 04:44:26;;;;;;;26.07;14.37;;;;;;;5.70;100.00;61418.63;5070835;28;20536;-72
2022/04/14 04:46:54;;;;;;;28.07;14.20;;;;;;;5.80;100.00;61424.22;5071183;28;20461;-72
2022/04/14 04:49:21;;;;;;;27.03;12.90;;;;;;;5.95;100.00;61445.31;5076641;28;20530;-73
2022/04/14 04:51:50;;;;;;;27.27;13.33;;;;;;;5.94;100.00;61439.16;5070818;28;21034;-72
2022/04/14 04:54:17;;;;;;;37.33;14.47;;;;;;;6.04;100.00;61449.28;5069076;28;20836;-71
2022/04/14 04:56:44;;;;;;;30.03;13.33;;;;;;;6.22;100.00;61467.97;5072875;28;20450;-72
2022/04/14 04:59:11;;;;;;;26.33;12.50;;;;;;;6.19;100.00;61464.75;5089500;28;20948;-72
2022/04/14 05:01:37;;;;;;;23.23;12.27;;;;;;;6.30;100.00;61473.97;5088863;28;20801;-72
2022/04/14 05:04:05;;;;;;;27.37;11.10;;;;;;;6.40;100.00;61487.69;5085361;28;20495;-73
2022/04/14 05:06:31;;;;;;;24.23;11.87;;;;;;;6.55;100.00;61503.69;5069728;28;20442;-72
2022/04/14 05:08:59;;;;;;;26.50;10.67;;;;;;;6.60;100.00;61508.50;5071177;28;20446;-72
2022/04/14 05:11:26;;;;;;;21.43;9.97;;;;;;;6.55;100.00;61505.69;5071125;28;20814;-73
2022/04/14 05:13:53;;;;;;;25.90;10.43;;;;;;;6.52;100.00;61499.97;5070894;28;20454;-71
2022/04/14 05:16:20;;;;;;;22.10;9.70;;;;;;;6.68;100.00;61514.50;5071018;28;20892;-72
2022/04/14 05:18:46;;;;;;;23.50;10.90;;;;;;;6.92;100.00;61542.66;5085324;28;20972;-72
2022/04/14 05:21:13;;;;;;;21.53;11.30;;;;;;;7.31;100.00;61583.75;5070895;28;20450;-72
2022/04/14 05:23:40;;;;;;;24.97;12.73;;;;;;;7.61;100.00;61616.31;5070784;28;20450;-72
2022/04/14 05:26:08;;;;;;;28.73;12.83;;;;;;;7.69;100.00;61624.31;5070490;28;20489;-72
2022/04/14 05:28:36;;;;;;;27.30;11.53;;;;;;;7.82;100.00;61637.69;5070896;28;20492;-71
2022/04/14 05:31:02;;;;;;;21.90;10.53;;;;;;;7.90;100.00;61649.31;5081523;28;20801;-72
2022/04/14 05:33:29;;;;;;;32.43;11.23;;;;;;;8.18;100.00;61676.69;5092132;28;20473;-72
2022/04/14 05:35:56;;;;;;;28.73;11.67;;;;;;;8.48;100.00;61706.22;5094012;28;20499;-71
2022/04/14 05:38:23;;;;;;;34.87;13.57;;;;;;;8.68;100.00;61734.16;5087254;28;20442;-72
2022/04/14 05:40:50;;;;;;;34.00;13.30;;;;;;;8.96;100.00;61762.09;5074240;28;20515;-72
2022/04/14 05:43:21;;;;;;;48.87;14.67;;;;;;;9.11;100.00;61775.59;5092447;28;20449;-72
2022/04/14 05:45:49;;;;;;;32.00;13.40;;;;;;;8.91;100.00;61756.22;5094556;28;20486;-72
2022/04/14 05:48:17;;;;;;;60.47;14.13;;;;;;;9.53;100.00;61822.00;5084649;28;20507;-71
2022/04/14 05:50:45;;;;;;;43.33;15.40;;;;;;;9.38;100.00;61807.03;5090720;28;20284;-71
2022/04/14 05:53:12;;;;;;;34.73;13.77;;;;;;;9.72;100.00;61835.25;5089800;28;20446;-72
2022/04/14 05:55:41;;;;;;;42.37;14.50;;;;;;;9.83;100.00;61854.66;5074336;28;20201;-73
2022/04/14 05:58:08;;;;;;;31.60;13.03;;;;;;;10.16;100.00;61887.47;5074066;28;20197;-73
2022/04/14 06:00:37;;;;;;;22.60;12.17;;;;;;;10.06;100.00;61876.22;5084235;28;20665;-72
2022/04/14 06:03:04;;;;;;;32.63;12.23;;;;;;;10.64;100.00;61933.25;5094446;28;20221;-72
2022/04/14 06:05:31;;;;;;;39.27;13.17;;;;;;;10.76;100.00;61946.09;5085458;28;20782;-75
2022/04/14 06:07:58;;;;;;;31.37;12.77;;;;;;;10.88;100.00;61963.53;5081260;28;20673;-75
2022/04/14 06:10:26;;;;;;;28.80;12.67;;;;;;;10.99;100.00;61975.84;5081467;28;20203;-74
2022/04/14 06:12:54;;;;;;;26.77;11.83;;;;;;;10.74;100.00;61949.06;5085484;28;20207;-73
2022/04/14 06:15:21;;;;;;;24.40;11.93;;;;;;;11.18;100.00;61997.69;5085423;28;20242;-73
2022/04/14 06:17:50;;;;;;;26.77;11.40;;;;;;;11.44;100.00;62023.00;5076144;28;20248;-71
2022/04/14 06:20:17;;;;;;;28.20;12.00;;;;;;;11.19;100.00;61996.22;5072077;28;20242;-72
2022/04/14 06:22:45;;;;;;;31.07;11.37;;;;;;;11.28;100.00;62008.41;5073811;28;20199;-72
2022/04/14 06:25:13;;;;;;;22.00;10.47;;;;;;;11.81;100.00;62065.78;5077547;28;20280;-71
2022/04/14 06:27:41;;;;;;;19.00;10.50;;;;;;;12.23;100.00;62107.25;5075023;28;20231;-72
2022/04/14 06:30:10;;;;;;;22.53;9.63;;;;;;;12.42;100.00;62125.59;5082089;28;20200;-72
2022/04/14 06:32:37;;;;;;;17.13;9.03;;;;;;;12.26;100.00;62108.44;5075787;28;20201;-71
2022/04/14 06:35:07;;;;;;;18.17;8.73;;;;;;;12.43;100.00;62126.69;5076597;28;20289;-72
2022/04/14 06:37:36;;;;;;;26.87;8.77;;;;;;;12.66;100.00;62153.91;5073744;28;20631;-72
2022/04/14 06:40:04;;;;;;;19.13;9.17;;;;;;;12.95;100.00;62178.88;5073261;28;20230;-71
2022/04/14 06:42:30;;;;;;;15.33;9.27;;;;;;;13.16;100.00;62206.56;5074265;28;20247;-71
2022/04/14 06:44:59;;;;;;;17.77;9.03;;;;;;;13.41;100.00;62233.41;5079062;28;20249;-73
2022/04/14 06:47:29;;;;;;;17.60;8.30;;;;;;;13.34;100.00;62220.78;5090892;28;20278;-71
2022/04/14 06:49:56;;;;;;;18.03;8.77;;;;;;;12.99;100.00;62190.84;5091872;28;20192;-72
2022/04/14 06:52:24;;;;;;;23.67;9.50;;;;;;;13.27;100.00;62213.25;5093319;28;20200;-70
2022/04/14 06:54:52;;;;;;;25.80;9.20;;;;;;;13.47;100.00;62239.84;5078571;28;20241;-73
2022/04/14 06:57:20;;;;;;;20.50;9.00;;;;;;;13.74;100.00;62266.31;5073123;28;20254;-72
2022/04/14 06:59:47;;;;;;;26.50;9.37;;;;;;;13.87;100.00;62282.28;5073072;28;20196;-72
2022/04/14 07:02:14;;;;;;;16.57;8.67;;;;;;;13.75;97.35;62267.38;5072685;28;20200;-71
2022/04/14 07:04:40;;;;;;;18.20;8.07;;;;;;;13.86;96.21;62281.22;5073682;28;20254;-72
2022/04/14 07:07:07;;;;;;;18.10;8.00;;;;;;;13.18;94.92;62208.72;5072348;28;20239;-71
2022/04/14 07:09:36;;;;;;;18.53;8.20;;;;;;;12.90;97.55;62178.63;5072641;28;20667;-70
2022/04/14 07:12:04;;;;;;;17.47;7.40;;;;;;;12.93;99.14;62179.81;5072690;28;20196;-69
2022/04/14 07:14:31;;;;;;;16.17;7.70;;;;;;;13.25;100.00;62216.22;5072236;28;20227;-71
2022/04/14 07:16:58;;;;;;;16.93;7.33;;;;;;;13.82;100.00;62272.34;5071488;28;20200;-72
2022/04/14 07:19:25;;;;;;;16.27;6.83;;;;;;;14.34;93.86;62335.97;5072538;28;20249;-72
2022/04/14 07:21:52;;;;;;;17.27;6.10;;;;;;;13.98;82.35;62292.09;5072836;28;20261;-72
2022/04/14 07:24:20;;;;;;;18.37;5.63;;;;;;;14.67;82.69;62372.94;5072531;28;20200;-72
2022/04/14 07:26:48;;;;;;;18.00;6.93;;;;;;;15.15;82.55;62419.44;5071217;28;20285;-71
2022/04/14 07:29:15;;;;;;;10.90;5.83;;;;;;;15.03;75.02;62407.06;5070619;28;20281;-71
2022/04/14 07:31:42;;;;;;;13.77;5.57;;;;;;;14.84;83.30;62383.53;5080977;28;20200;-72
2022/04/14 07:34:10;;;;;;;15.80;6.17;;;;;;;15.06;76.47;62409.75;5071986;28;20238;-71
2022/04/14 07:36:38;;;;;;;16.10;6.00;;;;;;;15.26;77.65;62431.28;5080505;28;20195;-72
2022/04/14 07:39:06;;;;;;;13.03;5.83;;;;;;;15.55;77.65;62462.53;5092308;28;20196;-71
2022/04/14 07:41:33;;;;;;;20.63;5.83;;;;;;;15.44;76.21;62445.53;5085698;28;20658;-71
2022/04/14 07:44:04;;;;;;;14.93;6.87;;;;;;;16.23;74.50;62529.53;5072011;28;20659;-71
2022/04/14 07:46:32;;;;;;;21.67;6.73;;;;;;;16.48;69.63;62556.47;5074329;28;20720;-71
2022/04/14 07:48:59;;;;;;;14.10;6.10;;;;;;;16.30;67.99;62537.06;5091965;28;20260;-72
2022/04/14 07:51:26;;;;;;;13.67;6.37;;;;;;;16.48;69.01;62556.97;5089567;28;20196;-72
2022/04/14 07:53:53;;;;;;;10.63;6.20;;;;;;;16.71;64.43;62586.94;5071572;28;20253;-71
2022/04/14 07:56:22;;;;;;;18.37;7.10;;;;;;;16.63;64.35;62577.78;5072269;28;20197;-70
2022/04/14 07:58:49;;;;;;;11.90;6.07;;;;;;;16.50;68.11;62563.78;5075315;28;20206;-72
2022/04/14 08:01:18;;;;;;;21.70;7.27;;;;;;;16.63;70.30;62575.19;5086620;28;20196;-72
2022/04/14 08:03:46;;;;;;;23.77;6.13;;;;;;;17.08;68.17;62625.75;5090222;28;20207;-72
2022/04/14 08:06:13;;;;;;;11.97;5.90;;;;;;;17.14;68.11;62627.59;5081738;28;20261;-71
2022/04/14 08:08:40;;;;;;;15.67;6.00;;;;;;;17.09;69.61;62626.81;5071704;28;20245;-70
2022/04/14 08:11:09;;;;;;;13.00;5.93;;;;;;;17.56;64.76;62672.91;5071561;28;20640;-71
2022/04/14 08:13:38;;;;;;;14.93;6.17;;;;;;;17.10;65.25;62631.03;5075472;28;20248;-70
2022/04/14 08:16:06;;;;;;;14.70;5.20;;;;;;;17.54;62.91;62673.34;5083832;28;20220;-73
2022/04/14 08:18:36;;;;;;;13.93;6.10;;;;;;;17.23;69.61;62642.44;5071557;28;20204;-71
2022/04/14 08:21:03;;;;;;;17.53;5.87;;;;;;;17.04;70.97;62621.44;5071503;28;20206;-72
2022/04/14 08:23:30;;;;;;;13.97;5.30;;;;;;;17.31;67.24;62648.50;5071707;28;20197;-72
2022/04/14 08:25:57;;;;;;;15.30;5.30;;;;;;;17.22;68.35;62641.38;5071094;28;20223;-72
2022/04/14 08:28:24;;;;;;;11.97;5.37;;;;;;;17.42;65.07;62660.38;5071171;28;20353;-72
2022/04/14 08:30:52;;;;;;;17.77;5.23;;;;;;;17.69;63.25;62691.53;5079998;28;20199;-72
2022/04/14 08:33:20;;;;;;;8.77;4.57;;;;;;;17.74;63.12;62694.38;5086584;28;20188;-70
2022/04/14 08:35:49;;;;;;;10.20;5.10;;;;;;;17.72;62.77;62694.78;5071427;28;20253;-71
2022/04/14 08:38:17;;;;;;;6.17;4.50;;;;;;;17.76;62.90;62698.56;5071194;28;20196;-72
2022/04/14 08:40:47;;;;;;;9.30;4.53;;;;;;;17.98;61.23;62719.72;5070961;28;20246;-72
2022/04/14 08:43:18;;;;;;;9.10;4.53;;;;;;;17.97;61.46;62721.22;5087487;28;20199;-71
2022/04/14 08:45:46;;;;;;;11.30;4.40;;;;;;;17.85;59.15;62713.44;5076079;28;20224;-71
2022/04/14 08:48:13;;;;;;;11.13;4.50;;;;;;;18.07;58.33;62726.84;5070907;28;20292;-71
2022/04/14 08:50:42;;;;;;;11.90;4.67;;;;;;;18.10;58.46;62735.25;5071170;28;20196;-71
2022/04/14 08:53:10;;;;;;;9.03;4.60;;;;;;;17.94;56.36;62715.41;5071032;28;20196;-72
2022/04/14 08:55:40;;;;;;;13.67;4.20;;;;;;;17.32;58.03;62651.63;5076629;28;20222;-73
2022/04/14 08:58:12;;;;;;;16.70;5.00;;;;;;;17.80;58.60;62697.72;5070938;28;20581;-72
2022/04/14 09:00:40;;;;;;;16.00;4.40;;;;;;;18.42;59.06;62764.63;5085969;28;20630;-71
2022/04/14 09:03:06;;;;;;;10.50;4.73;;;;;;;18.57;57.98;62786.00;5090897;28;20199;-71
2022/04/14 09:05:33;;;;;;;10.13;3.70;;;;;;;19.01;51.20;62833.50;5080935;28;20208;-71
2022/04/14 09:08:01;;;;;;;5.07;3.53;;;;;;;18.87;50.02;62817.84;5073395;28;20203;-72
2022/04/14 09:10:29;;;;;;;15.70;4.40;;;;;;;19.18;51.31;62851.88;5080786;28;20192;-70
2022/04/14 09:12:55;;;;;;;14.27;4.60;;;;;;;19.27;50.69;62863.63;5073740;28;20204;-71
2022/04/14 09:15:23;;;;;;;7.70;3.93;;;;;;;19.34;50.25;62869.16;5075021;28;20212;-71
2022/04/14 09:17:49;;;;;;;4.10;3.03;;;;;;;19.35;48.75;62867.13;5074326;28;20638;-70
2022/04/14 09:20:31;;;;;;;8.37;4.20;;;;;;;19.69;48.31;62903.31;5074894;28;20201;-71
2022/04/14 09:23:18;;;;;;;10.03;3.63;;;;;;;19.94;47.36;62930.34;5074723;28;20200;-72
2022/04/14 09:25:48;;;;;;;5.93;3.40;;;;;;;19.89;46.23;62927.53;5074575;28;20224;-71
2022/04/14 09:28:16;;;;;;;8.37;3.60;;;;;;;20.10;44.12;62947.66;5074671;28;20223;-71
2022/04/14 09:30:59;;;;;;;22.83;4.70;;;;;;;20.54;43.47;62992.09;5082416;28;20241;-71
2022/04/14 09:33:27;;;;;;;10.10;3.60;;;;;;;20.75;43.04;63014.81;5095226;28;20243;-71
2022/04/14 09:36:07;;;;;;;9.40;3.57;;;;;;;20.19;41.17;62954.81;5094412;28;20210;-72
2022/04/14 09:38:58;;;;;;;3.83;2.77;;;;;;;20.44;39.76;62987.03;5083653;28;20227;-70
2022/04/14 09:41:31;;;;;;;5.70;2.83;;;;;;;20.46;38.16;62984.00;5080104;28;20200;-71
2022/04/14 09:43:59;;;;;;;6.70;3.10;;;;;;;20.36;38.87;62978.38;5078899;28;20199;-72
2022/04/14 09:46:26;;;;;;;6.50;2.60;;;;;;;20.25;39.63;62963.88;5082683;28;20303;-72
2022/04/14 09:49:07;;;;;;;5.00;2.90;;;;;;;20.12;39.44;62949.81;5094586;28;20257;-70
2022/04/14 09:51:35;;;;;;;6.70;2.73;;;;;;;20.68;40.13;63007.25;5094411;28;20199;-71
2022/04/14 09:54:13;;;;;;;6.40;2.93;;;;;;;20.60;40.32;63004.31;5094540;28;20196;-72
2022/04/14 09:56:46;;;;;;;4.33;3.00;;;;;;;21.24;37.97;63069.91;5076581;28;20654;-71
2022/04/14 09:59:16;;;;;;;4.97;2.80;;;;;;;21.40;40.10;63090.34;5092508;28;20579;-74
2022/04/14 10:01:43;;;;;;;12.53;3.20;;;;;;;21.08;39.58;63050.00;5093291;28;20288;-71
2022/04/14 10:04:29;;;;;;;9.50;2.63;;;;;;;20.67;38.79;63006.16;5094065;28;20282;-71
2022/04/14 10:07:03;;;;;;;4.17;2.90;;;;;;;20.88;37.80;63029.44;5080662;28;20228;-71
2022/04/14 10:09:30;;;;;;;3.93;2.50;;;;;;;21.06;37.91;63053.00;5077741;28;20274;-71
2022/04/14 10:12:00;;;;;;;5.30;2.80;;;;;;;20.66;35.27;63010.81;5094005;28;20291;-71
2022/04/14 10:14:27;;;;;;;10.73;3.27;;;;;;;20.58;35.63;63002.16;5093441;28;20216;-72
2022/04/14 10:16:54;;;;;;;3.40;2.30;;;;;;;21.22;35.80;63067.75;5094166;28;20650;-70
2022/04/14 10:19:22;;;;;;;5.70;2.67;;;;;;;21.27;38.17;63075.75;5076931;28;20250;-74
2022/04/14 10:21:50;;;;;;;4.00;2.63;;;;;;;21.68;34.37;63117.53;5073603;28;20296;-72
2022/04/14 10:24:19;;;;;;;6.23;2.97;;;;;;;21.59;36.91;63110.38;5083691;28;20561;-71
2022/04/14 10:26:46;;;;;;;5.10;2.77;;;;;;;21.88;36.34;63136.59;5077421;28;20694;-72
2022/04/14 10:29:18;;;;;;;7.57;2.80;;;;;;;21.83;36.44;63131.22;5072406;28;20204;-72
2022/04/14 10:31:45;;;;;;;3.60;2.50;;;;;;;22.08;36.73;63163.47;5075409;28;20204;-71
2022/04/14 10:34:15;;;;;;;7.03;3.17;;;;;;;22.20;36.75;63176.44;5072284;28;20224;-71
2022/04/14 10:36:45;;;;;;;6.27;3.03;;;;;;;22.53;36.28;63209.63;5072838;28;20204;-71
2022/04/14 10:39:14;;;;;;;9.40;3.33;;;;;;;22.58;35.40;63214.50;5072943;28;20273;-73
2022/04/14 10:41:48;;;;;;;4.37;2.70;;;;;;;22.61;36.71;63220.34;5075294;28;20200;-72
2022/04/14 10:44:21;;;;;;;11.73;3.87;;;;;;;21.84;36.43;63129.69;5072643;28;20640;-72
2022/04/14 10:46:51;;;;;;;3.50;2.83;;;;;;;22.16;35.62;63168.97;5075280;28;20231;-71
2022/04/14 10:49:23;;;;;;;7.33;3.20;;;;;;;21.86;36.26;63134.44;5072617;28;20666;-71
2022/04/14 10:51:53;;;;;;;5.93;2.40;;;;;;;22.28;35.50;63179.94;5073030;28;20207;-70
2022/04/14 10:54:20;;;;;;;5.37;3.20;;;;;;;22.42;34.87;63200.28;5072645;28;20211;-70
2022/04/14 10:56:51;;;;;;;4.60;3.13;;;;;;;22.67;36.31;63222.22;5073093;28;20218;-71
2022/04/14 10:59:21;;;;;;;6.73;2.93;;;;;;;22.90;34.87;63248.66;5089123;28;20198;-71
2022/04/14 11:02:05;;;;;;;4.83;3.53;;;;;;;23.09;35.22;63264.56;5093022;28;20202;-72
2022/04/14 11:04:37;;;;;;;9.20;3.70;;;;;;;23.28;32.95;63284.63;5076497;28;20254;-72
2022/04/14 11:07:11;;;;;;;5.93;2.77;;;;;;;23.41;34.06;63307.09;5072232;28;20224;-72
2022/04/14 11:10:13;;;;;;;5.43;2.90;;;;;;;23.52;32.78;63313.28;5091655;28;20195;-70
2022/04/14 11:12:57;;;;;;;10.93;3.00;;;;;;;23.62;33.88;63329.34;5081239;28;20609;-72
2022/04/14 11:15:33;;;;;;;3.60;2.73;;;;;;;23.23;33.18;63282.34;5074101;28;20315;-72
2022/04/14 11:18:06;;;;;;;5.47;2.80;;;;;;;23.64;33.55;63325.75;5073345;28;20200;-71
2022/04/14 11:20:58;;;;;;;8.57;2.90;;;;;;;23.82;34.05;63350.47;5073030;28;20207;-71
2022/04/14 11:23:28;;;;;;;5.50;2.87;;;;;;;24.08;32.96;63374.03;5072413;28;20197;-72
2022/04/14 11:26:06;;;;;;;10.03;3.57;;;;;;;23.98;33.43;63368.38;5072589;28;20206;-72
2022/04/14 11:28:36;;;;;;;7.50;2.90;;;;;;;23.57;32.45;63323.34;5091351;28;20260;-71
2022/04/14 11:31:22;;;;;;;3.93;2.90;;;;;;;23.23;32.74;63289.59;5082118;28;20196;-70
2022/04/14 11:33:50;;;;;;;6.23;3.00;;;;;;;23.05;32.49;63268.03;5092347;28;20590;-72